createdAt,value
2018-07-05T00:00:53.188Z,13.45
2018-07-05T00:06:48.245Z,13.31
2018-07-05T00:12:43.216Z,14.6
2018-07-05T00:18:38.241Z,14.5
2018-07-05T00:24:33.243Z,13.74
2018-07-05T00:30:28.227Z,12.74
2018-07-05T00:36:23.234Z,14.09
2018-07-05T00:42:18.212Z,12.6
2018-07-05T00:48:13.207Z,13.47
2018-07-05T00:54:08.207Z,13.94
2018-07-05T01:00:03.197Z,13.03
2018-07-05T01:05:58.260Z,13.87
2018-07-05T01:11:53.206Z,13.37
2018-07-05T01:17:48.263Z,14.12
2018-07-05T01:23:43.244Z,14.19
2018-07-05T01:29:38.351Z,15.4
2018-07-05T01:35:33.316Z,15.23
2018-07-05T01:41:28.242Z,15
2018-07-05T01:47:23.242Z,14.62
2018-07-05T01:53:18.258Z,15.27
2018-07-05T01:59:13.255Z,14.57
2018-07-05T02:05:08.263Z,15.63
2018-07-05T02:11:03.299Z,16.44
2018-07-05T02:16:58.258Z,15.2
2018-07-05T02:22:53.288Z,15.03
2018-07-05T02:28:48.278Z,14.7
2018-07-05T02:34:43.281Z,14.42
2018-07-05T02:40:38.389Z,15.4
2018-07-05T02:46:33.280Z,15.92
2018-07-05T02:52:28.293Z,14.65
2018-07-05T02:58:23.314Z,14.93
2018-07-05T03:04:18.290Z,15.26
2018-07-05T03:10:13.276Z,15.15
2018-07-05T03:16:08.308Z,15.17
2018-07-05T03:22:03.415Z,15.28
2018-07-05T03:27:58.315Z,15.81
2018-07-05T03:33:53.387Z,16.61
2018-07-05T03:39:48.303Z,15.38
2018-07-05T03:45:43.363Z,16.36
2018-07-05T03:51:38.377Z,15.57
2018-07-05T03:57:33.356Z,16.21
2018-07-05T04:03:28.310Z,15.91
2018-07-05T04:09:23.355Z,15.12
2018-07-05T04:15:18.420Z,15.82
2018-07-05T04:21:13.448Z,15.91
2018-07-05T04:27:08.363Z,17.09
2018-07-05T04:33:03.320Z,15.22
2018-07-05T04:38:58.389Z,15.05
2018-07-05T04:44:53.345Z,15.19
2018-07-05T04:50:48.394Z,15.36
2018-07-05T04:56:43.405Z,15.33
2018-07-05T05:02:38.348Z,14.75
2018-07-05T05:08:33.383Z,15.64
2018-07-05T05:14:28.386Z,15.5
2018-07-05T05:20:23.429Z,15.73
2018-07-05T05:26:18.370Z,15.53
2018-07-05T05:32:13.386Z,15.42
2018-07-05T05:38:08.424Z,15.65
2018-07-05T05:44:03.409Z,15.03
2018-07-05T05:49:58.395Z,14.33
2018-07-05T05:55:53.400Z,14.4
2018-07-05T06:01:48.467Z,13.01
2018-07-05T06:07:43.434Z,13.17
2018-07-05T06:13:38.410Z,13.63
2018-07-05T06:19:33.430Z,13.24
2018-07-05T06:25:28.449Z,14.17
2018-07-05T06:31:23.469Z,13.2
2018-07-05T06:37:18.444Z,15.21
2018-07-05T06:43:13.534Z,13.63
2018-07-05T06:49:08.486Z,13.04
2018-07-05T06:55:03.527Z,13.72
2018-07-05T07:00:58.432Z,13.22
2018-07-05T07:06:53.477Z,12.9
2018-07-05T07:12:48.482Z,10.57
2018-07-05T07:18:43.492Z,10.48
2018-07-05T07:24:38.499Z,11.22
2018-07-05T07:30:33.488Z,10.49
2018-07-05T07:36:28.539Z,10.66
2018-07-05T07:42:23.527Z,10.58
2018-07-05T07:48:18.480Z,11.44
2018-07-05T07:54:13.466Z,11.07
2018-07-05T08:00:08.504Z,12.37
2018-07-05T08:06:03.522Z,11.45
2018-07-05T08:11:58.495Z,13.2
2018-07-05T08:17:53.522Z,11.14
2018-07-05T08:23:48.530Z,9.95
2018-07-05T08:29:43.513Z,8.53
2018-07-05T08:35:38.548Z,7.83
2018-07-05T08:41:33.535Z,7.81
2018-07-05T08:47:28.558Z,6.86
2018-07-05T08:53:23.536Z,6.89
2018-07-05T08:59:18.558Z,7.34
2018-07-05T09:05:13.573Z,6.93
2018-07-05T09:11:08.537Z,6.29
2018-07-05T09:17:03.571Z,8.11
2018-07-05T09:22:58.592Z,7.9
2018-07-05T09:28:53.531Z,7.07
2018-07-05T09:34:48.580Z,6.71
2018-07-05T09:40:43.558Z,6.53
2018-07-05T09:46:38.616Z,6.43
2018-07-05T09:52:33.715Z,5.57
2018-07-05T09:58:28.567Z,5.64
2018-07-05T10:04:23.682Z,5.88
2018-07-05T10:10:18.670Z,5.68
2018-07-05T10:16:13.610Z,6.38
2018-07-05T10:22:08.623Z,7.09
2018-07-05T10:28:03.643Z,6.38
2018-07-05T10:33:58.620Z,6.62
2018-07-05T10:39:53.623Z,6.44
2018-07-05T10:45:48.632Z,5.39
2018-07-05T10:51:43.637Z,5.13
2018-07-05T10:57:38.653Z,5.39
2018-07-05T11:03:33.665Z,4.95
2018-07-05T11:09:28.639Z,5.3
2018-07-05T11:15:23.668Z,4.8
2018-07-05T11:21:18.662Z,4.81
2018-07-05T11:27:13.705Z,5.05
2018-07-05T11:33:08.672Z,4.42
2018-07-05T11:39:03.665Z,4.14
2018-07-05T11:44:58.696Z,4.39
2018-07-05T11:50:53.670Z,4.55
2018-07-05T11:56:48.663Z,4.7
2018-07-05T12:02:43.699Z,4.68
2018-07-05T12:08:38.725Z,5.4
2018-07-05T12:14:33.724Z,5.52
2018-07-05T12:20:28.833Z,4.95
2018-07-05T12:26:23.777Z,5.07
2018-07-05T12:32:18.715Z,5.37
2018-07-05T12:38:13.835Z,5.1
2018-07-05T12:44:08.755Z,5.44
2018-07-05T12:50:03.748Z,5.73
2018-07-05T12:55:58.755Z,5.91
2018-07-05T13:01:53.779Z,5.23
2018-07-05T13:07:48.768Z,6.8
2018-07-05T13:13:43.736Z,6.37
2018-07-05T13:19:38.779Z,6.26
2018-07-05T13:25:33.754Z,6.45
2018-07-05T13:31:28.756Z,6.75
2018-07-05T13:37:23.787Z,7.14
2018-07-05T13:43:18.800Z,7.16
2018-07-05T13:49:13.793Z,7.7
2018-07-05T13:55:08.785Z,8.29
2018-07-05T14:01:03.814Z,7.81
2018-07-05T14:06:58.787Z,7.48
2018-07-05T14:12:53.828Z,7.12
2018-07-05T14:18:48.810Z,7.47
2018-07-05T14:24:43.891Z,7.13
2018-07-05T14:30:38.838Z,6.14
2018-07-05T14:36:33.840Z,6.22
2018-07-05T14:42:28.814Z,6.28
2018-07-05T14:48:23.809Z,5.78
2018-07-05T14:54:18.853Z,6.35
2018-07-05T15:00:13.830Z,6.69
2018-07-05T15:06:08.842Z,6.93
2018-07-05T15:12:03.876Z,7.02
2018-07-05T15:17:58.866Z,6.58
2018-07-05T15:23:53.889Z,6.39
2018-07-05T15:29:48.915Z,5.59
2018-07-05T15:35:43.902Z,5.2
2018-07-05T15:41:38.898Z,5.27
2018-07-05T15:47:33.914Z,5.49
2018-07-05T15:53:28.879Z,4.48
2018-07-05T15:59:23.893Z,4.08
2018-07-05T16:05:18.900Z,3.88
2018-07-05T16:11:13.868Z,4.38
2018-07-05T16:17:08.962Z,4.95
2018-07-05T16:23:03.881Z,3.95
2018-07-05T16:28:58.916Z,4.21
2018-07-05T16:34:53.928Z,3.93
2018-07-05T16:40:48.947Z,5.1
2018-07-05T16:46:43.979Z,4.73
2018-07-05T16:52:39.034Z,4.61
2018-07-05T16:58:34.003Z,5.11
2018-07-05T17:04:28.993Z,4.7
2018-07-05T17:10:23.957Z,5.65
2018-07-05T17:16:18.946Z,5.59
2018-07-05T17:22:13.965Z,5.35
2018-07-05T17:28:08.958Z,5.06
2018-07-05T17:34:03.966Z,5.45
2018-07-05T17:39:58.972Z,5.93
2018-07-05T17:45:54.004Z,5.9
2018-07-05T17:51:48.951Z,7.04
2018-07-05T17:57:44.005Z,6.94
2018-07-05T18:03:39.038Z,7.48
2018-07-05T18:09:33.992Z,6.97
2018-07-05T18:15:28.991Z,7.08
2018-07-05T18:21:23.980Z,7.79
2018-07-05T18:27:19.016Z,8.08
2018-07-05T18:33:14.001Z,7.94
2018-07-05T18:39:09.043Z,8.8
2018-07-05T18:45:04.390Z,8.18
2018-07-05T18:50:59.013Z,8.66
2018-07-05T18:56:54.058Z,8.33
2018-07-05T19:02:49.015Z,9.54
2018-07-05T19:08:44.011Z,9.76
2018-07-05T19:14:39.039Z,9.54
2018-07-05T19:20:34.050Z,9.79
2018-07-05T19:26:29.052Z,9.77
2018-07-05T19:32:24.020Z,9.24
2018-07-05T19:38:19.074Z,9.73
2018-07-05T19:44:14.815Z,9.97
2018-07-05T19:50:09.813Z,10.88
2018-07-05T19:56:04.602Z,11.1
2018-07-05T20:01:59.079Z,11.56
2018-07-05T20:07:54.073Z,12.4
2018-07-05T20:13:49.067Z,10.29
2018-07-05T20:19:44.061Z,10.76
2018-07-05T20:25:39.138Z,11.26
2018-07-05T20:31:34.063Z,12.02
2018-07-05T20:37:29.072Z,12.3
2018-07-05T20:43:24.141Z,11.19
2018-07-05T20:49:19.106Z,11.41
2018-07-05T20:55:14.132Z,12.16
2018-07-05T21:01:09.095Z,12.83
2018-07-05T21:07:04.114Z,13.13
2018-07-05T21:12:59.110Z,13.13
2018-07-05T21:18:54.111Z,12.4
2018-07-05T21:24:49.148Z,12.31
2018-07-05T21:30:44.144Z,12.45
2018-07-05T21:36:39.105Z,13
2018-07-05T21:42:34.174Z,12.51
2018-07-05T21:48:29.172Z,14.16
2018-07-05T21:54:24.181Z,15.26
2018-07-05T22:00:19.144Z,15.47
2018-07-05T22:06:14.154Z,15.31
2018-07-05T22:12:09.164Z,16.2
2018-07-05T22:18:04.154Z,15.22
2018-07-05T22:23:59.172Z,14.2
2018-07-05T22:29:54.228Z,14.27
2018-07-05T22:35:49.193Z,13.62
2018-07-05T22:41:44.180Z,13.25
2018-07-05T22:47:39.180Z,14.02
2018-07-05T22:53:34.178Z,14.5
2018-07-05T22:59:29.216Z,13.54
2018-07-05T23:05:24.178Z,14.26
2018-07-05T23:11:19.242Z,15.38
2018-07-05T23:17:14.209Z,14.66
2018-07-05T23:23:09.221Z,15.62
2018-07-05T23:29:04.197Z,15.67
2018-07-05T23:34:59.258Z,15.94
2018-07-05T23:40:54.284Z,16.23
2018-07-05T23:46:49.208Z,16.21
2018-07-05T23:52:44.269Z,15.42
2018-07-05T23:58:39.245Z,15.14
